Time;durP1;ratioP1;P1;durP2;ratioP2;P2;SDS_P1;SDS_P2;PMS_P1;PMS_P2;Temp;Humidity;BMP_temperature;BMP_pressure;BME280_temperature;BME280_humidity;BME280_pressure;Samples;Min_cycle;Max_cycle;Signal;HPM_P1;HPM_P2
2022/11/22 00:02:23;;;;;;;0.00;0.00;;;6.10;99.90;;;;;;5098909;28;20178;-86
2022/11/22 00:04:49;;;;;;;0.10;0.10;;;6.10;99.90;;;;;;5097904;28;20195;-85
2022/11/22 00:07:15;;;;;;;0.10;0.10;;;6.20;99.90;;;;;;5096731;28;20685;-85
2022/11/22 00:09:41;;;;;;;0.10;0.10;;;6.30;99.90;;;;;;5095578;28;20287;-85
2022/11/22 00:12:07;;;;;;;0.10;0.10;;;6.40;99.90;;;;;;5104698;28;20230;-85
2022/11/22 00:14:32;;;;;;;0.10;0.10;;;6.50;99.90;;;;;;5091366;28;20248;-86
2022/11/22 00:16:58;;;;;;;0.10;0.10;;;6.40;99.90;;;;;;5109445;28;20216;-85
2022/11/22 00:19:23;;;;;;;0.10;0.10;;;6.50;99.90;;;;;;5092488;28;20187;-85
2022/11/22 00:21:49;;;;;;;0.10;0.10;;;6.60;99.90;;;;;;5106929;28;20191;-85
2022/11/22 00:24:14;;;;;;;0.00;0.00;;;6.80;99.90;;;;;;5090538;28;20212;-85
2022/11/22 00:26:40;;;;;;;0.10;0.10;;;6.80;99.90;;;;;;5103796;28;20663;-86
2022/11/22 00:29:06;;;;;;;0.10;0.10;;;6.80;99.90;;;;;;5091778;28;20187;-86
2022/11/22 00:31:31;;;;;;;0.10;0.10;;;6.90;99.90;;;;;;5098178;28;20606;-85
2022/11/22 00:33:57;;;;;;;0.10;0.10;;;6.70;99.90;;;;;;5101750;28;20190;-86
2022/11/22 00:36:23;;;;;;;0.10;0.10;;;6.60;99.90;;;;;;5099359;28;20185;-86
2022/11/22 00:38:49;;;;;;;0.10;0.10;;;6.70;99.90;;;;;;5107800;28;20182;-85
2022/11/22 00:41:14;;;;;;;0.10;0.10;;;6.70;99.90;;;;;;5093742;28;20196;-86
2022/11/22 00:43:40;;;;;;;0.10;0.10;;;6.50;99.90;;;;;;5100541;28;20720;-86
2022/11/22 00:46:05;;;;;;;0.10;0.10;;;6.50;99.90;;;;;;5092044;28;20192;-86
2022/11/22 00:48:31;;;;;;;0.10;0.10;;;6.60;99.90;;;;;;5105320;28;20169;-85
2022/11/22 00:50:57;;;;;;;0.10;0.10;;;6.80;99.90;;;;;;5109494;28;20226;-85
2022/11/22 00:53:22;;;;;;;0.10;0.10;;;6.80;99.90;;;;;;5103622;28;20178;-85
2022/11/22 00:55:48;;;;;;;0.10;0.10;;;6.80;99.90;;;;;;5101353;28;20178;-85
2022/11/22 00:58:14;;;;;;;0.10;0.10;;;6.80;99.90;;;;;;5092398;28;20192;-85
2022/11/22 01:00:40;;;;;;;0.10;0.10;;;6.70;99.90;;;;;;5100661;28;20249;-86
2022/11/22 01:03:06;;;;;;;0.10;0.10;;;6.70;99.90;;;;;;5115258;28;20176;-85
2022/11/22 01:05:31;;;;;;;0.10;0.10;;;6.60;99.90;;;;;;5113861;28;20226;-86
2022/11/22 01:07:57;;;;;;;0.10;0.10;;;6.60;99.90;;;;;;5108696;28;20196;-86
2022/11/22 01:10:23;;;;;;;0.10;0.10;;;6.40;99.90;;;;;;5120089;28;20252;-86
2022/11/22 01:12:48;;;;;;;0.10;0.10;;;6.60;99.90;;;;;;5107276;23;21967;-82
2022/11/22 01:15:14;;;;;;;0.10;0.10;;;6.60;99.90;;;;;;5043662;28;20637;-81
2022/11/22 01:17:40;;;;;;;0.10;0.10;;;6.70;99.90;;;;;;5048547;28;20178;-81
2022/11/22 01:20:06;;;;;;;0.10;0.10;;;6.60;99.90;;;;;;5049970;28;20267;-81
2022/11/22 01:22:31;;;;;;;0.00;0.00;;;6.50;99.90;;;;;;5039073;28;20654;-81
2022/11/22 01:24:57;;;;;;;0.10;0.10;;;6.70;99.90;;;;;;5056341;28;20209;-81
2022/11/22 01:27:23;;;;;;;0.10;0.10;;;6.80;99.90;;;;;;5063893;28;20637;-81
2022/11/22 01:29:48;;;;;;;0.10;0.10;;;6.70;99.90;;;;;;5058234;28;20178;-80
2022/11/22 01:32:14;;;;;;;0.10;0.10;;;6.70;99.90;;;;;;5063570;28;20183;-81
2022/11/22 01:34:40;;;;;;;0.10;0.10;;;6.70;99.90;;;;;;5060135;28;20198;-81
2022/11/22 01:37:05;;;;;;;0.10;0.10;;;6.70;99.90;;;;;;5061148;28;20687;-81
2022/11/22 01:39:31;;;;;;;0.10;0.10;;;6.80;99.90;;;;;;5062324;28;20307;-81
2022/11/22 01:41:56;;;;;;;0.10;0.10;;;6.80;99.90;;;;;;5060148;28;20760;-82
2022/11/22 01:44:28;;;;;;;0.07;0.07;;;6.80;99.90;;;;;;5062920;28;20255;-81
2022/11/22 01:47:02;;;;;;;0.10;0.10;;;6.80;99.90;;;;;;5056624;28;20604;-82
2022/11/22 01:49:38;;;;;;;0.07;0.07;;;6.80;99.90;;;;;;5063852;28;20175;-81
2022/11/22 01:52:08;;;;;;;0.10;0.10;;;6.90;99.90;;;;;;5055294;28;20181;-81
2022/11/22 01:54:39;;;;;;;0.10;0.10;;;7.00;99.90;;;;;;5055134;28;20197;-81
2022/11/22 01:57:09;;;;;;;0.00;0.00;;;7.00;99.90;;;;;;5064301;28;20181;-81
2022/11/22 01:59:38;;;;;;;0.10;0.10;;;7.10;99.90;;;;;;5058508;28;20214;-81
2022/11/22 02:02:05;;;;;;;0.10;0.10;;;7.10;99.90;;;;;;5055048;28;20238;-81
2022/11/22 02:04:33;;;;;;;0.10;0.10;;;7.20;99.90;;;;;;5065273;28;20197;-81
2022/11/22 02:07:01;;;;;;;0.10;0.10;;;7.30;99.90;;;;;;5055005;28;20189;-82
2022/11/22 02:09:27;;;;;;;0.10;0.10;;;7.40;99.90;;;;;;5064519;28;20178;-81
2022/11/22 02:11:56;;;;;;;0.10;0.10;;;7.50;99.90;;;;;;5055378;28;20181;-81
2022/11/22 02:14:25;;;;;;;0.00;0.00;;;7.60;99.90;;;;;;5058726;28;20666;-81
2022/11/22 02:16:50;;;;;;;0.00;0.00;;;7.60;99.90;;;;;;5058911;28;20546;-82
2022/11/22 02:19:30;;;;;;;0.03;0.03;;;7.70;99.90;;;;;;5062318;28;20185;-81
2022/11/22 02:22:02;;;;;;;0.10;0.10;;;7.70;99.90;;;;;;5058343;28;20206;-81
2022/11/22 02:24:39;;;;;;;0.10;0.10;;;7.80;99.90;;;;;;5055830;28;20221;-81
2022/11/22 02:27:05;;;;;;;0.10;0.10;;;7.70;99.90;;;;;;5065502;28;20183;-81
2022/11/22 02:29:31;;;;;;;0.10;0.10;;;7.60;99.90;;;;;;5062685;28;20265;-80
2022/11/22 02:31:56;;;;;;;0.10;0.10;;;7.70;99.90;;;;;;5060064;28;20734;-81
2022/11/22 02:34:22;;;;;;;0.10;0.10;;;7.50;99.90;;;;;;5061698;28;20206;-81
2022/11/22 02:36:51;;;;;;;0.10;0.10;;;7.50;99.90;;;;;;5066909;28;20182;-81
2022/11/22 02:39:25;;;;;;;0.10;0.10;;;7.60;99.90;;;;;;5059367;28;20189;-81
2022/11/22 02:41:51;;;;;;;0.10;0.10;;;7.60;99.90;;;;;;5067946;28;20202;-82
2022/11/22 02:44:19;;;;;;;0.10;0.10;;;7.60;99.90;;;;;;5059190;28;20215;-82
2022/11/22 02:46:50;;;;;;;0.10;0.10;;;7.60;99.90;;;;;;5068115;28;20649;-81
2022/11/22 02:49:18;;;;;;;0.10;0.10;;;7.60;99.90;;;;;;5058113;28;20317;-81
2022/11/22 02:51:43;;;;;;;0.10;0.10;;;7.60;99.90;;;;;;5068168;28;20671;-81
2022/11/22 02:54:09;;;;;;;0.10;0.10;;;7.50;99.90;;;;;;5056474;28;20210;-82
2022/11/22 02:56:34;;;;;;;0.10;0.10;;;7.40;99.90;;;;;;5068847;28;20269;-81
2022/11/22 02:59:00;;;;;;;0.10;0.10;;;7.40;99.90;;;;;;5058541;28;20189;-81
2022/11/22 03:01:25;;;;;;;0.10;0.10;;;7.10;99.90;;;;;;5062247;28;20185;-80
2022/11/22 03:03:51;;;;;;;0.10;0.10;;;7.10;99.90;;;;;;5065218;28;20205;-81
2022/11/22 03:06:17;;;;;;;0.10;0.10;;;7.00;99.90;;;;;;5060466;28;20213;-81
2022/11/22 03:08:43;;;;;;;0.10;0.10;;;7.00;99.90;;;;;;5056063;28;20201;-81
2022/11/22 03:11:08;;;;;;;0.10;0.10;;;7.10;99.90;;;;;;5063167;28;20649;-82
2022/11/22 03:13:34;;;;;;;0.10;0.10;;;7.10;99.90;;;;;;5069316;28;20249;-82
2022/11/22 03:15:59;;;;;;;0.10;0.10;;;7.20;99.90;;;;;;5064446;28;20643;-81
2022/11/22 03:18:25;;;;;;;0.10;0.10;;;7.10;99.90;;;;;;5060530;28;20243;-82
2022/11/22 03:20:50;;;;;;;0.00;0.00;;;7.10;99.90;;;;;;5072146;28;20260;-81
2022/11/22 03:23:16;;;;;;;0.10;0.10;;;7.00;99.90;;;;;;5067672;28;20193;-81
2022/11/22 03:25:41;;;;;;;0.10;0.10;;;7.20;99.90;;;;;;5057873;28;20173;-82
2022/11/22 03:28:07;;;;;;;0.10;0.10;;;7.30;99.90;;;;;;5058113;28;20190;-81
2022/11/22 03:30:33;;;;;;;0.10;0.10;;;7.40;99.90;;;;;;5058788;28;20212;-81
2022/11/22 03:32:58;;;;;;;0.10;0.10;;;7.40;99.90;;;;;;5060799;28;20216;-81
2022/11/22 03:35:24;;;;;;;0.10;0.10;;;7.40;99.90;;;;;;5065821;28;20181;-81
2022/11/22 03:37:49;;;;;;;0.10;0.10;;;7.20;99.90;;;;;;5059280;28;20185;-81
2022/11/22 03:40:15;;;;;;;0.10;0.10;;;7.30;99.90;;;;;;5064811;28;20195;-81
2022/11/22 03:42:40;;;;;;;0.10;0.10;;;7.40;99.90;;;;;;5062523;28;20180;-80
2022/11/22 03:45:06;;;;;;;0.10;0.10;;;7.50;99.90;;;;;;5061449;28;20580;-81
2022/11/22 03:47:32;;;;;;;0.10;0.10;;;7.50;99.90;;;;;;5065648;28;20549;-81
2022/11/22 03:49:57;;;;;;;0.10;0.10;;;7.60;99.90;;;;;;5058781;28;20207;-80
2022/11/22 03:52:23;;;;;;;0.10;0.10;;;7.50;99.90;;;;;;5065091;28;20777;-81
2022/11/22 03:54:48;;;;;;;0.10;0.10;;;7.50;99.90;;;;;;5066603;28;20206;-80
2022/11/22 03:57:15;;;;;;;0.10;0.10;;;7.50;99.90;;;;;;5058232;28;20304;-80
2022/11/22 03:59:41;;;;;;;0.10;0.10;;;7.40;99.90;;;;;;5066664;28;20180;-80
2022/11/22 04:02:06;;;;;;;0.10;0.10;;;7.20;99.90;;;;;;5055976;28;20278;-81
2022/11/22 04:04:32;;;;;;;0.10;0.10;;;7.20;99.90;;;;;;5067794;28;20900;-81
2022/11/22 04:06:58;;;;;;;0.10;0.10;;;7.20;99.90;;;;;;5057034;28;20173;-81
2022/11/22 04:09:23;;;;;;;0.00;0.00;;;7.00;99.90;;;;;;5057060;28;20183;-82
2022/11/22 04:11:49;;;;;;;0.10;0.10;;;6.90;99.90;;;;;;5065287;28;20170;-81
2022/11/22 04:16:58;;;;;;;0.10;0.10;;;6.80;99.90;;;;;;5066399;28;20187;-82
2022/11/22 04:19:24;;;;;;;0.10;0.10;;;6.80;99.90;;;;;;5057842;28;20188;-81
2022/11/22 04:21:49;;;;;;;0.10;0.10;;;6.60;99.90;;;;;;5055126;28;20174;-80
2022/11/22 04:26:59;;;;;;;0.10;0.10;;;6.80;99.90;;;;;;5061514;28;20192;-81
2022/11/22 04:29:24;;;;;;;0.10;0.10;;;6.80;99.90;;;;;;5060261;28;20178;-82
2022/11/22 04:34:36;;;;;;;0.10;0.10;;;6.90;99.90;;;;;;5061662;28;20212;-81
2022/11/22 04:37:02;;;;;;;0.10;0.10;;;7.00;99.90;;;;;;5065108;28;20186;-81
2022/11/22 04:39:28;;;;;;;0.10;0.10;;;7.10;99.90;;;;;;5058494;28;20224;-81
2022/11/22 04:44:40;;;;;;;0.10;0.10;;;7.10;99.90;;;;;;5059159;28;20410;-81
2022/11/22 04:47:07;;;;;;;0.10;0.10;;;7.10;99.90;;;;;;5065497;28;20184;-81
2022/11/22 04:49:33;;;;;;;0.10;0.10;;;7.20;99.90;;;;;;5052023;28;20179;-81
2022/11/22 04:54:42;;;;;;;0.03;0.03;;;7.10;99.90;;;;;;5057977;28;20266;-81
2022/11/22 04:57:08;;;;;;;0.00;0.00;;;7.00;99.90;;;;;;5058797;28;20653;-81
2022/11/22 04:59:33;;;;;;;0.10;0.10;;;7.10;99.90;;;;;;5066452;28;20224;-81
2022/11/22 05:01:59;;;;;;;0.10;0.10;;;7.00;99.90;;;;;;5061288;28;20222;-81
2022/11/22 05:04:24;;;;;;;0.10;0.10;;;7.00;99.90;;;;;;5057850;28;20210;-81
2022/11/22 05:06:50;;;;;;;0.10;0.10;;;7.10;99.90;;;;;;5064644;28;20182;-81
2022/11/22 05:09:16;;;;;;;0.10;0.10;;;7.20;99.90;;;;;;5059548;28;20209;-81
2022/11/22 05:11:41;;;;;;;0.10;0.10;;;7.10;99.90;;;;;;5063036;28;20184;-81
2022/11/22 05:14:08;;;;;;;0.10;0.10;;;7.10;99.90;;;;;;5067349;28;20217;-81
2022/11/22 05:16:34;;;;;;;0.10;0.10;;;7.20;99.90;;;;;;5059992;28;20177;-81
2022/11/22 05:18:59;;;;;;;0.10;0.10;;;7.20;99.90;;;;;;5055194;28;20251;-81
2022/11/22 05:21:26;;;;;;;0.10;0.10;;;7.20;99.90;;;;;;5060265;28;20559;-81
2022/11/22 05:23:55;;;;;;;0.10;0.10;;;7.30;99.90;;;;;;5062922;28;20212;-81
2022/11/22 05:26:25;;;;;;;0.10;0.10;;;7.30;99.90;;;;;;5056365;28;20665;-80
2022/11/22 05:28:51;;;;;;;0.10;0.10;;;7.30;99.90;;;;;;5057822;28;20169;-81
2022/11/22 05:31:26;;;;;;;0.00;0.00;;;7.20;99.90;;;;;;5064599;28;20177;-80
2022/11/22 05:33:53;;;;;;;0.10;0.10;;;7.30;99.90;;;;;;5055996;28;20559;-81
2022/11/22 05:36:19;;;;;;;0.10;0.10;;;7.20;99.90;;;;;;5066584;28;20188;-81
2022/11/22 05:38:45;;;;;;;0.10;0.10;;;7.20;99.90;;;;;;5057933;28;20169;-81
2022/11/22 05:41:12;;;;;;;0.10;0.10;;;7.20;99.90;;;;;;5069810;28;20725;-80
2022/11/22 05:43:38;;;;;;;0.10;0.10;;;7.20;99.90;;;;;;5067582;28;20197;-81
2022/11/22 05:46:17;;;;;;;0.10;0.10;;;7.20;99.90;;;;;;5061388;28;20603;-81
2022/11/22 05:48:45;;;;;;;0.10;0.10;;;7.20;99.90;;;;;;5065157;28;20197;-81
2022/11/22 05:51:17;;;;;;;0.10;0.10;;;7.20;99.90;;;;;;5066389;28;20647;-81
2022/11/22 05:53:43;;;;;;;0.00;0.00;;;7.30;99.90;;;;;;5068281;28;20210;-80
2022/11/22 05:56:15;;;;;;;0.10;0.10;;;7.10;99.90;;;;;;5060228;28;20184;-81
2022/11/22 05:58:41;;;;;;;0.10;0.10;;;7.10;99.90;;;;;;5066465;28;20173;-80
2022/11/22 06:01:09;;;;;;;0.10;0.10;;;7.20;99.90;;;;;;5064908;28;20178;-80
2022/11/22 06:03:35;;;;;;;0.00;0.00;;;7.20;99.90;;;;;;5072837;28;20198;-81
2022/11/22 06:06:01;;;;;;;0.00;0.00;;;7.20;99.90;;;;;;5058587;28;20174;-80
2022/11/22 06:08:32;;;;;;;0.00;0.00;;;7.20;99.90;;;;;;5064048;28;20534;-81
2022/11/22 06:11:05;;;;;;;0.10;0.10;;;7.30;99.90;;;;;;5066948;28;20201;-81
2022/11/22 06:13:36;;;;;;;0.10;0.10;;;7.30;99.90;;;;;;5068995;28;20209;-81
2022/11/22 06:16:03;;;;;;;0.10;0.10;;;7.40;99.90;;;;;;5067489;28;20173;-81
2022/11/22 06:18:29;;;;;;;0.10;0.10;;;7.40;99.90;;;;;;5060670;28;20222;-81
2022/11/22 06:20:57;;;;;;;0.10;0.10;;;7.40;99.90;;;;;;5069420;28;20174;-81
2022/11/22 06:23:23;;;;;;;0.10;0.10;;;7.40;99.90;;;;;;5070251;28;20201;-82
2022/11/22 06:25:56;;;;;;;0.10;0.10;;;7.40;99.90;;;;;;5058748;28;20178;-82
2022/11/22 06:28:22;;;;;;;0.10;0.10;;;7.50;99.90;;;;;;5069269;28;20169;-82
2022/11/22 06:30:47;;;;;;;0.10;0.10;;;7.50;99.90;;;;;;5058855;28;20171;-81
2022/11/22 06:33:13;;;;;;;0.00;0.00;;;7.50;99.90;;;;;;5069782;28;20189;-82
2022/11/22 06:35:38;;;;;;;0.10;0.10;;;7.50;99.90;;;;;;5058881;28;20661;-81
2022/11/22 06:38:03;;;;;;;0.10;0.10;;;7.50;99.90;;;;;;5067693;28;20183;-80
2022/11/22 06:40:29;;;;;;;0.10;0.10;;;7.50;99.90;;;;;;5060085;28;20219;-82
2022/11/22 06:42:54;;;;;;;0.10;0.10;;;7.50;99.90;;;;;;5067021;28;20246;-81
2022/11/22 06:45:20;;;;;;;0.10;0.10;;;7.50;99.90;;;;;;5061000;28;20188;-81
2022/11/22 06:47:45;;;;;;;0.10;0.10;;;7.40;99.90;;;;;;5062997;28;20538;-82
2022/11/22 06:50:11;;;;;;;0.10;0.10;;;7.40;99.90;;;;;;5064245;28;20649;-80
2022/11/22 06:52:37;;;;;;;0.00;0.00;;;7.40;99.90;;;;;;5060967;28;20167;-81
2022/11/22 06:55:02;;;;;;;0.10;0.10;;;7.40;99.90;;;;;;5067177;28;20266;-81
2022/11/22 06:57:28;;;;;;;0.10;0.10;;;7.40;99.90;;;;;;5058796;28;20242;-81
2022/11/22 06:59:53;;;;;;;0.00;0.00;;;7.40;99.90;;;;;;5069020;28;20177;-81
2022/11/22 07:02:19;;;;;;;0.10;0.10;;;7.50;99.90;;;;;;5059434;28;20182;-82
2022/11/22 07:04:45;;;;;;;0.00;0.00;;;7.50;99.90;;;;;;5069348;28;20189;-81
2022/11/22 07:07:10;;;;;;;0.10;0.10;;;7.50;99.90;;;;;;5056817;28;20709;-82
2022/11/22 07:09:37;;;;;;;0.10;0.10;;;7.50;99.90;;;;;;5068152;28;20261;-82
2022/11/22 07:12:03;;;;;;;0.10;0.10;;;7.50;99.90;;;;;;5057862;28;20178;-81
2022/11/22 07:14:29;;;;;;;0.10;0.10;;;7.60;99.90;;;;;;5061899;28;20299;-81
2022/11/22 07:16:55;;;;;;;0.10;0.10;;;7.60;99.90;;;;;;5069020;28;20199;-80
2022/11/22 07:19:21;;;;;;;0.10;0.10;;;7.60;99.90;;;;;;5063303;28;20185;-80
2022/11/22 07:21:46;;;;;;;0.00;0.00;;;7.60;99.90;;;;;;5073054;28;20265;-80
2022/11/22 07:24:12;;;;;;;0.10;0.10;;;7.70;99.90;;;;;;5078285;28;20198;-80
2022/11/22 07:26:37;;;;;;;0.10;0.10;;;7.70;99.90;;;;;;5061473;28;20208;-80
2022/11/22 07:29:03;;;;;;;0.10;0.10;;;7.80;99.90;;;;;;5067836;28;20286;-80
2022/11/22 07:31:28;;;;;;;0.10;0.10;;;7.80;99.90;;;;;;5064830;28;20189;-80
2022/11/22 07:33:56;;;;;;;0.10;0.10;;;7.80;99.90;;;;;;5064657;28;20256;-80
2022/11/22 07:36:22;;;;;;;0.10;0.10;;;7.90;99.90;;;;;;5075133;28;20185;-80
2022/11/22 07:38:48;;;;;;;0.10;0.10;;;7.80;99.90;;;;;;5066201;28;20660;-80
2022/11/22 07:41:15;;;;;;;0.10;0.10;;;7.80;99.90;;;;;;5073643;28;20189;-80
2022/11/22 07:43:41;;;;;;;0.00;0.00;;;7.80;99.90;;;;;;5059390;28;20204;-80
2022/11/22 07:46:17;;;;;;;0.10;0.10;;;7.90;99.90;;;;;;5073060;28;20179;-80
2022/11/22 07:48:42;;;;;;;0.10;0.10;;;7.80;99.90;;;;;;5063230;28;20178;-80
2022/11/22 07:51:08;;;;;;;0.10;0.10;;;7.90;99.90;;;;;;5073549;28;20194;-80
2022/11/22 07:53:34;;;;;;;0.10;0.10;;;7.90;99.90;;;;;;5060734;28;20281;-80
2022/11/22 07:56:02;;;;;;;0.10;0.10;;;7.90;99.90;;;;;;5058241;28;20174;-80
2022/11/22 07:58:28;;;;;;;0.10;0.10;;;7.80;99.90;;;;;;5069239;28;20255;-80
2022/11/22 08:00:53;;;;;;;0.10;0.10;;;7.90;99.90;;;;;;5071032;28;20174;-80
2022/11/22 08:03:19;;;;;;;0.10;0.10;;;7.90;99.90;;;;;;5065544;28;20206;-80
2022/11/22 08:05:44;;;;;;;0.10;0.10;;;7.90;99.90;;;;;;5062987;28;20203;-80
2022/11/22 08:08:10;;;;;;;0.10;0.10;;;7.90;99.90;;;;;;5064966;28;20174;-80
2022/11/22 08:10:35;;;;;;;0.10;0.10;;;8.00;99.90;;;;;;5073798;28;20186;-80
2022/11/22 08:13:01;;;;;;;0.10;0.10;;;8.00;99.90;;;;;;5065698;28;20236;-80
2022/11/22 08:15:27;;;;;;;0.10;0.10;;;8.10;99.90;;;;;;5073147;28;20215;-80
2022/11/22 08:17:52;;;;;;;0.10;0.10;;;8.10;99.90;;;;;;5060743;28;20173;-80
2022/11/22 08:20:18;;;;;;;0.10;0.10;;;8.10;99.90;;;;;;5056733;28;20277;-80
2022/11/22 08:22:43;;;;;;;0.10;0.10;;;8.10;99.90;;;;;;5072423;28;20209;-80
2022/11/22 08:25:11;;;;;;;0.10;0.10;;;8.10;99.90;;;;;;5057179;28;20428;-80
2022/11/22 08:27:41;;;;;;;0.10;0.10;;;8.10;99.90;;;;;;5064089;28;20176;-81
2022/11/22 08:30:08;;;;;;;0.10;0.10;;;8.10;99.90;;;;;;5069865;28;20183;-80
2022/11/22 08:32:34;;;;;;;0.10;0.10;;;8.00;99.90;;;;;;5065151;28;20703;-80
2022/11/22 08:34:59;;;;;;;0.10;0.10;;;8.00;99.90;;;;;;5075854;28;20217;-80
2022/11/22 08:37:25;;;;;;;0.10;0.10;;;7.90;99.90;;;;;;5067951;28;20196;-80
2022/11/22 08:39:50;;;;;;;0.10;0.10;;;8.00;99.90;;;;;;5071213;28;20178;-80
2022/11/22 08:42:16;;;;;;;0.00;0.00;;;8.00;99.90;;;;;;5069143;28;20173;-80
2022/11/22 08:44:41;;;;;;;0.10;0.10;;;8.00;99.90;;;;;;5067347;28;20290;-80
2022/11/22 08:47:07;;;;;;;0.10;0.10;;;8.10;99.90;;;;;;5075458;28;20206;-80
2022/11/22 08:49:33;;;;;;;0.10;0.10;;;8.10;99.90;;;;;;5062080;28;20270;-80
2022/11/22 08:51:58;;;;;;;0.00;0.00;;;8.20;99.90;;;;;;5060490;28;20178;-80
2022/11/22 08:54:24;;;;;;;0.10;0.10;;;8.20;99.90;;;;;;5070638;28;20251;-80
2022/11/22 08:56:49;;;;;;;0.10;0.10;;;8.20;99.90;;;;;;5062044;28;20204;-80
2022/11/22 08:59:15;;;;;;;0.10;0.10;;;8.20;99.90;;;;;;5058659;28;20217;-80
2022/11/22 09:01:40;;;;;;;0.10;0.10;;;8.20;99.90;;;;;;5062036;28;20265;-80
2022/11/22 09:04:06;;;;;;;0.10;0.10;;;8.20;99.90;;;;;;5057835;28;20274;-80
2022/11/22 09:06:31;;;;;;;0.10;0.10;;;8.30;99.90;;;;;;5067548;28;20202;-80
2022/11/22 09:08:57;;;;;;;0.10;0.10;;;8.30;99.90;;;;;;5062991;28;20183;-80
2022/11/22 09:11:22;;;;;;;0.10;0.10;;;8.30;99.90;;;;;;5072220;28;20181;-80
2022/11/22 09:13:48;;;;;;;0.10;0.10;;;8.30;99.90;;;;;;5070469;28;20217;-80
2022/11/22 09:16:16;;;;;;;0.10;0.10;;;8.40;99.90;;;;;;5065458;28;20848;-80
2022/11/22 09:18:42;;;;;;;0.10;0.10;;;8.50;99.90;;;;;;5063249;28;20171;-80
2022/11/22 09:21:18;;;;;;;0.10;0.10;;;8.50;99.90;;;;;;5058426;28;20522;-80
2022/11/22 09:23:45;;;;;;;0.10;0.10;;;8.60;99.90;;;;;;5069917;28;20693;-80
2022/11/22 09:26:14;;;;;;;0.10;0.10;;;8.50;99.90;;;;;;5071563;28;20171;-80
2022/11/22 09:28:40;;;;;;;0.10;0.10;;;8.60;99.90;;;;;;5067669;28;20199;-80
2022/11/22 09:31:12;;;;;;;0.10;0.10;;;8.70;99.90;;;;;;5067390;28;20177;-80
2022/11/22 09:33:38;;;;;;;0.10;0.10;;;8.80;99.90;;;;;;5059891;28;20195;-80
2022/11/22 09:36:10;;;;;;;0.10;0.10;;;9.00;99.90;;;;;;5068452;28;20177;-80
2022/11/22 09:38:36;;;;;;;0.10;0.10;;;9.00;99.90;;;;;;5067625;28;20279;-80
2022/11/22 09:41:14;;;;;;;0.10;0.10;;;9.10;99.90;;;;;;5071660;28;20268;-80
2022/11/22 09:44:16;;;;;;;0.10;0.10;;;9.10;99.90;;;;;;5068933;28;20212;-80
2022/11/22 09:46:56;;;;;;;0.10;0.10;;;9.20;99.90;;;;;;5078336;28;20177;-80
2022/11/22 09:49:53;;;;;;;0.10;0.10;;;9.10;99.90;;;;;;5066271;28;20699;-80
2022/11/22 09:52:29;;;;;;;0.10;0.10;;;9.20;99.90;;;;;;5069238;28;20609;-80
2022/11/22 09:55:21;;;;;;;0.10;0.10;;;9.10;99.90;;;;;;5063902;28;20175;-80
2022/11/22 09:57:51;;;;;;;0.10;0.10;;;9.20;99.90;;;;;;5083469;28;20189;-80
2022/11/22 10:00:25;;;;;;;0.10;0.10;;;9.30;99.90;;;;;;5064671;28;20213;-80
2022/11/22 10:03:14;;;;;;;0.00;0.00;;;9.50;99.90;;;;;;5064942;28;20201;-81
2022/11/22 10:05:50;;;;;;;0.10;0.10;;;9.50;99.90;;;;;;5068158;28;20202;-80
2022/11/22 10:08:37;;;;;;;0.10;0.10;;;9.50;99.90;;;;;;5062254;28;20175;-80
2022/11/22 10:11:12;;;;;;;0.10;0.10;;;9.50;99.90;;;;;;5062294;28;20207;-80
2022/11/22 10:13:48;;;;;;;0.10;0.10;;;9.50;99.90;;;;;;5071136;28;20214;-80
2022/11/22 10:16:19;;;;;;;0.10;0.10;;;9.80;99.90;;;;;;5076385;28;20183;-80
2022/11/22 10:18:54;;;;;;;0.10;0.10;;;9.80;99.90;;;;;;5068420;28;20189;-80
2022/11/22 10:21:20;;;;;;;0.10;0.10;;;9.50;99.90;;;;;;5069997;28;20186;-80
2022/11/22 10:23:46;;;;;;;0.10;0.10;;;9.40;99.90;;;;;;5073511;28;20195;-80
2022/11/22 10:26:26;;;;;;;0.10;0.10;;;9.30;99.90;;;;;;5066749;28;20174;-80
2022/11/22 10:28:57;;;;;;;0.10;0.10;;;9.20;99.90;;;;;;5070513;28;20667;-80
2022/11/22 10:31:31;;;;;;;0.10;0.10;;;9.30;99.90;;;;;;5060547;28;20177;-80
2022/11/22 10:34:17;;;;;;;0.10;0.10;;;9.30;99.90;;;;;;5060020;28;20215;-80
2022/11/22 10:37:05;;;;;;;0.10;0.10;;;9.30;99.90;;;;;;5077792;28;20683;-80
2022/11/22 10:39:39;;;;;;;0.10;0.10;;;9.40;99.90;;;;;;5063012;28;20192;-80
2022/11/22 10:42:26;;;;;;;0.10;0.10;;;9.40;99.90;;;;;;5065194;28;20183;-80
2022/11/22 10:45:16;;;;;;;0.10;0.10;;;9.50;99.90;;;;;;5066735;28;20601;-80
2022/11/22 10:47:55;;;;;;;0.10;0.10;;;9.60;99.90;;;;;;5070214;28;20251;-80
2022/11/22 10:50:38;;;;;;;0.03;0.03;;;9.60;99.90;;;;;;5067921;28;20195;-80
2022/11/22 10:53:19;;;;;;;0.00;0.00;;;9.60;99.90;;;;;;5067029;28;20201;-80
2022/11/22 10:56:17;;;;;;;0.10;0.10;;;9.60;99.90;;;;;;5064613;28;20179;-80
2022/11/22 10:59:23;;;;;;;0.10;0.10;;;9.50;99.90;;;;;;5070519;28;20550;-80
2022/11/22 11:01:55;;;;;;;0.10;0.10;;;9.50;99.90;;;;;;5048555;28;20201;-80
2022/11/22 11:04:23;;;;;;;0.10;0.10;;;9.50;99.90;;;;;;5066562;28;20205;-80
2022/11/22 11:06:55;;;;;;;0.10;0.10;;;9.50;99.90;;;;;;5057220;28;20525;-80
2022/11/22 11:09:22;;;;;;;0.10;0.10;;;9.50;99.90;;;;;;5076941;28;20174;-80
2022/11/22 11:11:50;;;;;;;0.10;0.10;;;9.60;99.90;;;;;;5068048;28;20230;-80
2022/11/22 11:14:40;;;;;;;0.07;0.07;;;9.60;99.90;;;;;;5076913;28;20215;-80
2022/11/22 11:17:06;;;;;;;0.10;0.10;;;9.70;99.90;;;;;;5065630;28;20180;-80
2022/11/22 11:19:37;;;;;;;0.10;0.10;;;9.60;99.90;;;;;;5056875;28;20181;-80
2022/11/22 11:22:06;;;;;;;0.10;0.10;;;9.50;99.90;;;;;;5072152;28;20172;-80
2022/11/22 11:24:31;;;;;;;0.10;0.10;;;9.40;99.90;;;;;;5071358;28;20208;-80
2022/11/22 11:26:59;;;;;;;0.10;0.10;;;9.40;99.90;;;;;;5066867;28;20181;-80
2022/11/22 11:29:48;;;;;;;0.10;0.10;;;9.40;99.90;;;;;;5068082;28;20674;-80
2022/11/22 11:32:16;;;;;;;0.10;0.10;;;9.40;99.90;;;;;;5066025;28;20176;-80
2022/11/22 11:35:03;;;;;;;0.10;0.10;;;9.40;99.90;;;;;;5065012;28;20680;-80
2022/11/22 11:37:35;;;;;;;0.10;0.10;;;9.40;99.90;;;;;;5068225;28;20205;-79
2022/11/22 11:40:01;;;;;;;0.10;0.10;;;9.40;99.90;;;;;;5072426;28;20191;-80
2022/11/22 11:42:34;;;;;;;0.10;0.10;;;9.60;99.90;;;;;;5064603;28;20185;-80
2022/11/22 11:45:29;;;;;;;0.10;0.10;;;9.50;99.90;;;;;;5060713;28;20223;-81
2022/11/22 11:47:55;;;;;;;0.10;0.10;;;9.70;99.90;;;;;;5058368;28;20196;-80
2022/11/22 11:50:23;;;;;;;0.07;0.07;;;9.80;99.90;;;;;;5063852;28;20184;-80
2022/11/22 11:52:54;;;;;;;0.10;0.10;;;9.80;99.90;;;;;;5062219;28;20597;-80
2022/11/22 11:55:20;;;;;;;0.10;0.10;;;9.80;99.90;;;;;;5075630;28;20188;-80
2022/11/22 11:57:47;;;;;;;0.10;0.10;;;9.70;99.90;;;;;;5071081;28;20181;-80
2022/11/22 12:00:25;;;;;;;0.10;0.10;;;9.70;99.90;;;;;;5067630;28;20183;-80
2022/11/22 12:02:57;;;;;;;0.10;0.10;;;9.60;99.90;;;;;;5064330;28;20204;-80
2022/11/22 12:05:28;;;;;;;0.10;0.10;;;9.50;99.90;;;;;;5062043;28;20224;-80
2022/11/22 12:07:54;;;;;;;0.10;0.10;;;9.40;99.90;;;;;;5065104;28;20177;-80
2022/11/22 12:10:46;;;;;;;0.10;0.10;;;9.40;99.90;;;;;;5067475;28;20276;-80
2022/11/22 12:13:28;;;;;;;0.10;0.10;;;9.50;99.90;;;;;;5064515;28;20265;-80
2022/11/22 12:16:15;;;;;;;0.10;0.10;;;9.50;99.90;;;;;;5071346;28;20196;-80
2022/11/22 12:19:18;;;;;;;0.10;0.10;;;9.50;99.90;;;;;;5064253;28;20183;-80
2022/11/22 12:22:01;;;;;;;0.10;0.10;;;9.50;99.90;;;;;;5058215;28;20183;-80
2022/11/22 12:24:42;;;;;;;0.10;0.10;;;9.40;99.90;;;;;;5064791;28;20757;-80
2022/11/22 12:27:11;;;;;;;0.10;0.10;;;9.50;99.90;;;;;;5058841;28;20638;-80
2022/11/22 12:29:40;;;;;;;0.10;0.10;;;9.50;99.90;;;;;;5068537;28;20206;-80
2022/11/22 12:32:16;;;;;;;0.10;0.10;;;9.50;99.90;;;;;;5073025;28;20191;-80
2022/11/22 12:34:57;;;;;;;0.10;0.10;;;9.60;99.90;;;;;;5067232;28;20234;-80
2022/11/22 12:37:38;;;;;;;0.10;0.10;;;9.50;99.90;;;;;;5065251;28;20277;-80
2022/11/22 12:40:11;;;;;;;0.10;0.10;;;9.40;99.90;;;;;;5063453;28;20207;-81
2022/11/22 12:42:49;;;;;;;0.10;0.10;;;9.40;99.90;;;;;;5069222;28;20713;-80
2022/11/22 12:45:30;;;;;;;0.10;0.10;;;9.30;99.90;;;;;;5061655;28;20219;-80
2022/11/22 12:48:01;;;;;;;0.10;0.10;;;9.20;99.90;;;;;;5069175;28;20266;-80
2022/11/22 12:50:39;;;;;;;0.10;0.10;;;9.20;99.90;;;;;;5063050;28;20666;-80
2022/11/22 12:53:12;;;;;;;0.00;0.00;;;9.10;99.90;;;;;;5072002;28;20290;-80
2022/11/22 12:55:57;;;;;;;0.10;0.10;;;9.00;99.90;;;;;;5068038;28;20649;-80
2022/11/22 12:58:59;;;;;;;0.10;0.10;;;9.00;99.90;;;;;;5065822;28;20184;-80
2022/11/22 13:01:41;;;;;;;0.10;0.10;;;8.90;99.90;;;;;;5053432;28;20227;-80
2022/11/22 13:04:09;;;;;;;0.10;0.10;;;8.90;99.90;;;;;;5071605;28;20240;-80
2022/11/22 13:06:53;;;;;;;0.10;0.10;;;8.90;99.90;;;;;;5062696;28;20206;-80
2022/11/22 13:09:27;;;;;;;0.10;0.10;;;8.90;99.90;;;;;;5066491;28;20683;-80
2022/11/22 13:12:03;;;;;;;0.10;0.10;;;9.00;99.90;;;;;;5060013;28;20598;-79
2022/11/22 13:14:40;;;;;;;0.10;0.10;;;9.00;99.90;;;;;;5068323;28;20234;-80
2022/11/22 13:17:07;;;;;;;0.10;0.10;;;9.10;99.90;;;;;;5066937;28;20219;-80
2022/11/22 13:19:50;;;;;;;0.10;0.10;;;9.20;99.90;;;;;;5071290;28;20282;-80
2022/11/22 13:22:51;;;;;;;0.10;0.10;;;9.20;99.90;;;;;;5065804;28;20188;-80
2022/11/22 13:25:37;;;;;;;0.10;0.10;;;9.20;99.90;;;;;;5060647;28;20305;-80